^^
Saratoga-Weather Station Historical Data
Daily Summary for June 24, 2020 Units:  Metric    English   Both
Daily Weekly Monthly Yearly Custom
  High: Low: Average:
Temperature: 19.8 °C 10.6 °C 15.5 °C
Dew Point: 15.2 °C 9.1 °C 12.3 °C
Humidity: 92% 57% 82%
Wind Speed: 20.9km/h 0km/h 3.8km/h
Wind Gust: 25.7km/h - -
Wind- - South
Pressure: 1006.8 hPa 998.0 hPa -
Precipitation: 4.8 mm    
Historical Graphs
 
 
Tabular Data for June 24, 2020
Time Temperature Dew Point Pressure Wind Wind Speed Wind Gust Humidity Rainfall Rate (Hourly) solar
00:03 17.8 °C 14.7 °C 1002.0 hPa NE 3.2 km/h 8 km/h 82% 1.5 mm 0 W/m2
00:08 17.7 °C 15 °C 1002.0 hPa NNE 1.4 km/h 3.2 km/h 84% 1.5 mm 0 W/m2
00:13 17.5 °C 14.9 °C 1002.0 hPa Calm   8 km/h 85% 1.5 mm 0 W/m2
00:19 17.3 °C 14.9 °C 1002.0 hPa Calm   4.8 km/h 86% 1.5 mm 0 W/m2
00:24 17.2 °C 15.2 °C 1002.0 hPa Calm     88% 1.5 mm 0 W/m2
00:29 17 °C 15 °C 1001.7 hPa South 3.2 km/h 4.8 km/h 88% 1.5 mm 0 W/m2
00:34 16.8 °C 15 °C 1001.7 hPa SSE 3.2 km/h 6.4 km/h 89% 2.3 mm 0 W/m2
00:39 16.7 °C 14.9 °C 1001.4 hPa Calm   8 km/h 89% 2.8 mm 0 W/m2
00:44 16.7 °C 14.9 °C 1001.7 hPa NNW 6.4 km/h 6.4 km/h 89% 2.8 mm 0 W/m2
00:49 16.7 °C 14.9 °C 1001.4 hPa NNW 1.4 km/h 8 km/h 89% 1.5 mm 0 W/m2
00:54 16.7 °C 14.9 °C 1001.7 hPa Calm   9.7 km/h 89% 1.5 mm 0 W/m2
00:59 16.7 °C 14.9 °C 1001.7 hPa NNW 1.4 km/h 3.2 km/h 89% 1.5 mm 0 W/m2
01:04 16.6 °C 14.8 °C 1002.0 hPa Calm   9.7 km/h 89% 1.5 mm 0 W/m2
01:09 16.5 °C 14.7 °C 1002.0 hPa Calm   4.8 km/h 89% 1.5 mm 0 W/m2
01:14 16.5 °C 14.9 °C 1002.0 hPa NE 3.2 km/h 8 km/h 90% 1.5 mm 0 W/m2
01:19 16.6 °C 15 °C 1002.0 hPa NNW 1.4 km/h 6.4 km/h 90% 1.5 mm 0 W/m2
01:24 16.7 °C 14.9 °C 1002.0 hPa NE 3.2 km/h 6.4 km/h 89% 1.5 mm 0 W/m2
01:29 16.7 °C 14.9 °C 1002.0 hPa NE 1.4 km/h 6.4 km/h 89% 1.5 mm 0 W/m2
01:34 16.8 °C 15 °C 1002.0 hPa NW 1.4 km/h 3.2 km/h 89% 0.8 mm 0 W/m2
01:39 16.7 °C 14.9 °C 1002.0 hPa Calm   6.4 km/h 89% 0.2 mm 0 W/m2
01:44 16.7 °C 14.9 °C 1002.0 hPa WNW 4.7 km/h 6.4 km/h 89% 0.2 mm 0 W/m2
01:49 16.7 °C 15.1 °C 1002.0 hPa WNW 7.9 km/h 14.5 km/h 90% 0.5 mm 0 W/m2
01:54 16.7 °C 15.1 °C 1001.7 hPa SE 1.4 km/h 3.2 km/h 90% 0.5 mm 0 W/m2
01:59 16.7 °C 15.1 °C 1002.0 hPa North 1.4 km/h 14.5 km/h 90% 0.5 mm 0 W/m2
02:04 16.6 °C 15 °C 1002.0 hPa NW 3.2 km/h 9.7 km/h 90% 0.5 mm 0 W/m2
02:09 16.6 °C 15 °C 1001.7 hPa NW 1.4 km/h 3.2 km/h 90% 0.5 mm 0 W/m2
02:14 16.6 °C 15 °C 1001.7 hPa WNW 1.4 km/h 9.7 km/h 90% 0.5 mm 0 W/m2
02:19 16.6 °C 15.1 °C 1002.0 hPa WNW 3.2 km/h 6.4 km/h 91% 0.5 mm 0 W/m2
02:24 16.6 °C 15.1 °C 1002.0 hPa WNW 3.2 km/h 4.8 km/h 91% 0.5 mm 0 W/m2
02:29 16.6 °C 15.1 °C 1002.0 hPa South 3.2 km/h 4.8 km/h 91% 0.5 mm 0 W/m2
02:34 16.6 °C 15.1 °C 1002.0 hPa Calm   3.2 km/h 91% 0.5 mm 0 W/m2
02:39 16.6 °C 15.1 °C 1002.4 hPa NW 3.2 km/h 6.4 km/h 91% 0.5 mm 0 W/m2
02:44 16.6 °C 15.1 °C 1002.0 hPa Calm   3.2 km/h 91% 0.5 mm 0 W/m2
02:49 16.6 °C 15.1 °C 1002.0 hPa SSW 3.2 km/h 14.5 km/h 91% 0.5 mm 0 W/m2
02:54 16.5 °C 15 °C 1002.0 hPa South 1.4 km/h 11.3 km/h 91% 0.5 mm 0 W/m2
03:00 16.4 °C 14.9 °C 1002.4 hPa NNW 1.4 km/h 14.5 km/h 91% 0.5 mm 0 W/m2
03:05 16.4 °C 14.9 °C 1002.4 hPa Calm   1.6 km/h 91% 0.5 mm 0 W/m2
03:10 16.4 °C 14.9 °C 1002.4 hPa North 3.2 km/h 4.8 km/h 91% 0.2 mm 0 W/m2
03:15 16.4 °C 14.9 °C 1002.4 hPa WNW 1.4 km/h 8 km/h 91% 0.2 mm 0 W/m2
03:20 16.4 °C 14.9 °C 1002.4 hPa East 3.2 km/h 4.8 km/h 91% 0.2 mm 0 W/m2
03:25 16.4 °C 14.9 °C 1002.4 hPa WNW 1.4 km/h 4.8 km/h 91% 0.2 mm 0 W/m2
03:30 16.4 °C 14.9 °C 1002.4 hPa SW 1.4 km/h 9.7 km/h 91% 0.0 mm 0 W/m2
03:35 16.4 °C 14.9 °C 1002.7 hPa WNW 3.2 km/h 12.9 km/h 91% 0.0 mm 0 W/m2
03:40 16.4 °C 14.9 °C 1002.7 hPa NW 9.7 km/h 14.5 km/h 91% 0.0 mm 0 W/m2
03:45 16.3 °C 14.8 °C 1002.7 hPa WNW 3.2 km/h 8 km/h 91% 0.0 mm 0 W/m2
03:50 16.3 °C 14.8 °C 1003.0 hPa WSW 7.9 km/h 11.3 km/h 91% 0.0 mm 0 W/m2
03:55 16.2 °C 14.7 °C 1003.0 hPa WNW 7.9 km/h 14.5 km/h 91% 0.0 mm 0 W/m2
04:00 16.2 °C 14.7 °C 1003.0 hPa WNW 6.4 km/h 14.5 km/h 91% 0.2 mm 0 W/m2
04:05 16.2 °C 14.7 °C 1003.0 hPa ENE 3.2 km/h 8 km/h 91% 0.2 mm 0 W/m2
04:10 16.1 °C 14.6 °C 1003.0 hPa WNW 3.2 km/h 9.7 km/h 91% 0.2 mm 0 W/m2
04:15 16.1 °C 14.6 °C 1003.0 hPa Calm   9.7 km/h 91% 0.2 mm 0 W/m2
04:20 16 °C 14.5 °C 1003.0 hPa NNW 4.7 km/h 4.8 km/h 91% 0.2 mm 0 W/m2
04:25 16 °C 14.7 °C 1003.0 hPa WNW 3.2 km/h 8 km/h 92% 0.2 mm 0 W/m2
04:30 15.9 °C 14.4 °C 1003.0 hPa WSW 1.4 km/h 3.2 km/h 91% 0.2 mm 0 W/m2
04:35 15.9 °C 14.4 °C 1003.4 hPa SW 9.7 km/h 25.7 km/h 91% 0.2 mm 0 W/m2
04:40 15.7 °C 13.7 °C 1003.7 hPa NW 7.9 km/h 19.3 km/h 88% 0.2 mm 0 W/m2
04:45 15.6 °C 13.3 °C 1003.7 hPa West 9.7 km/h 25.7 km/h 86% 0.2 mm 0 W/m2
04:50 15.3 °C 12.4 °C 1003.7 hPa WSW 9.7 km/h 20.9 km/h 83% 0.2 mm 0 W/m2
04:55 15 °C 12.3 °C 1003.7 hPa West 11.1 km/h 12.9 km/h 84% 0.2 mm 0 W/m2
05:00 14.6 °C 11.9 °C 1003.7 hPa West 6.4 km/h 20.9 km/h 84% 0.0 mm 0 W/m2
05:05 14.3 °C 11.6 °C 1003.7 hPa West 3.2 km/h 11.3 km/h 84% 0.0 mm 0 W/m2
05:10 14 °C 11.3 °C 1004.1 hPa West 11.1 km/h 11.3 km/h 84% 0.0 mm 0 W/m2
05:15 13.7 °C 11 °C 1004.1 hPa WSW 7.9 km/h 9.7 km/h 84% 0.0 mm 0 W/m2
05:20 13.5 °C 10.8 °C 1004.4 hPa West 4.7 km/h 19.3 km/h 84% 0.0 mm 0 W/m2
05:25 13.3 °C 10.7 °C 1004.4 hPa NW 6.4 km/h 11.3 km/h 84% 0.0 mm 0 W/m2
05:30 13.1 °C 10.3 °C 1004.4 hPa WNW 7.9 km/h 14.5 km/h 83% 0.0 mm 0 W/m2
05:35 12.9 °C 10.1 °C 1004.7 hPa WSW 4.7 km/h 6.4 km/h 83% 0.0 mm 0 W/m2
05:41 12.8 °C 10 °C 1004.7 hPa West 3.2 km/h 14.5 km/h 83% 0.0 mm 0 W/m2
05:46 12.7 °C 10.2 °C 1004.7 hPa West 4.7 km/h 6.4 km/h 85% 0.0 mm 0 W/m2
05:51 12.6 °C 10.1 °C 1005.1 hPa West 9.7 km/h 9.7 km/h 85% 0.0 mm 0 W/m2
05:56 12.6 °C 10.3 °C 1005.1 hPa West 4.7 km/h 16.1 km/h 86% 0.0 mm 0 W/m2
06:01 12.6 °C 10.3 °C 1005.1 hPa West 4.7 km/h 16.1 km/h 86% 0.0 mm 0 W/m2
06:06 12.6 °C 10.1 °C 1005.1 hPa WSW 3.2 km/h 19.3 km/h 85% 0.0 mm 0 W/m2
06:11 12.5 °C 9.9 °C 1005.1 hPa NW 14.3 km/h 17.7 km/h 84% 0.0 mm 0 W/m2
06:16 12.4 °C 9.8 °C 1005.1 hPa WSW 11.1 km/h 16.1 km/h 84% 0.0 mm 0 W/m2
06:21 12.4 °C 9.9 °C 1005.1 hPa WNW 6.4 km/h 12.9 km/h 85% 0.0 mm 0 W/m2
06:26 12.3 °C 9.9 °C 1005.4 hPa WSW 7.9 km/h 14.5 km/h 85% 0.0 mm 0 W/m2
06:31 12.2 °C 9.8 °C 1005.4 hPa West 1.4 km/h 4.8 km/h 85% 0.0 mm 0 W/m2
06:36 12.1 °C 9.8 °C 1005.4 hPa Calm   4.8 km/h 86% 0.0 mm 0 W/m2
06:41 11.9 °C 9.8 °C 1005.4 hPa Calm   4.8 km/h 87% 0.0 mm 0 W/m2
06:46 11.8 °C 9.7 °C 1005.4 hPa Calm   6.4 km/h 87% 0.0 mm 0 W/m2
06:51 11.8 °C 9.7 °C 1005.8 hPa Calm   1.6 km/h 87% 0.0 mm 0 W/m2
06:56 11.7 °C 9.8 °C 1005.8 hPa WNW 3.2 km/h 4.8 km/h 88% 0.0 mm 0 W/m2
07:01 11.6 °C 9.7 °C 1005.8 hPa NNW 3.2 km/h 4.8 km/h 88% 0.0 mm 0 W/m2
07:06 11.5 °C 9.6 °C 1005.8 hPa West 3.2 km/h 8 km/h 88% 0.0 mm 0 W/m2
07:11 11.4 °C 9.5 °C 1005.8 hPa NW 3.2 km/h 3.2 km/h 88% 0.0 mm 0 W/m2
07:16 11.4 °C 9.5 °C 1005.8 hPa Calm   8 km/h 88% 0.0 mm 0 W/m2
07:21 11.4 °C 9.7 °C 1006.1 hPa NNE 1.4 km/h 4.8 km/h 89% 0.0 mm 0 W/m2
07:26 11.3 °C 9.6 °C 1006.1 hPa Calm   3.2 km/h 89% 0.0 mm 0 W/m2
07:31 11.2 °C 9.5 °C 1006.1 hPa Calm   3.2 km/h 89% 0.0 mm 5 W/m2
07:36 11.1 °C 9.4 °C 1006.1 hPa SE 1.4 km/h 3.2 km/h 89% 0.0 mm 7 W/m2
07:41 10.9 °C 9.3 °C 1006.1 hPa SE 1.4 km/h 1.6 km/h 90% 0.0 mm 9 W/m2
07:46 10.8 °C 9.2 °C 1006.1 hPa Calm   1.6 km/h 90% 0.0 mm 12 W/m2
07:51 10.7 °C 9.1 °C 1006.4 hPa East 3.2 km/h 6.4 km/h 90% 0.0 mm 16 W/m2
07:56 10.7 °C 9.3 °C 1006.4 hPa East 1.4 km/h 4.8 km/h 91% 0.0 mm 18 W/m2
08:01 10.7 °C 9.3 °C 1006.4 hPa East 1.4 km/h 3.2 km/h 91% 0.0 mm 21 W/m2
08:06 10.7 °C 9.3 °C 1006.4 hPa East 1.4 km/h 4.8 km/h 91% 0.0 mm 25 W/m2
08:11 10.6 °C 9.2 °C 1006.4 hPa ENE 3.2 km/h 3.2 km/h 91% 0.0 mm 26 W/m2
08:16 10.6 °C 9.2 °C 1006.4 hPa Calm   1.6 km/h 91% 0.0 mm 28 W/m2
08:21 10.6 °C 9.2 °C 1006.4 hPa East 1.4 km/h 1.6 km/h 91% 0.0 mm 32 W/m2
08:26 10.7 °C 9.5 °C 1006.4 hPa Calm     92% 0.0 mm 33 W/m2
08:31 10.7 °C 9.5 °C 1006.4 hPa NE 3.2 km/h 3.2 km/h 92% 0.0 mm 35 W/m2
08:36 10.7 °C 9.5 °C 1006.4 hPa Calm   1.6 km/h 92% 0.0 mm 37 W/m2
08:41 10.8 °C 9.6 °C 1006.4 hPa SE 3.2 km/h 3.2 km/h 92% 0.0 mm 39 W/m2
08:46 10.9 °C 9.7 °C 1006.4 hPa Calm   4.8 km/h 92% 0.0 mm 40 W/m2
08:51 11 °C 9.6 °C 1006.4 hPa Calm     91% 0.0 mm 42 W/m2
08:56 11.1 °C 9.7 °C 1006.8 hPa ESE 1.4 km/h 1.6 km/h 91% 0.0 mm 44 W/m2
09:01 11.2 °C 9.6 °C 1006.8 hPa North 3.2 km/h 3.2 km/h 90% 0.0 mm 46 W/m2
09:06 11.4 °C 9.8 °C 1006.8 hPa NNW 1.4 km/h 3.2 km/h 90% 0.0 mm 111 W/m2
09:11 11.6 °C 9.8 °C 1006.8 hPa ESE 1.4 km/h 11.3 km/h 89% 0.0 mm 186 W/m2
09:16 11.8 °C 10 °C 1006.8 hPa NW 4.7 km/h 4.8 km/h 89% 0.0 mm 230 W/m2
09:21 11.9 °C 10 °C 1006.4 hPa Calm   11.3 km/h 88% 0.0 mm 172 W/m2
09:26 12.2 °C 10.1 °C 1006.4 hPa NW 4.7 km/h 4.8 km/h 87% 0.0 mm 251 W/m2
09:31 12.4 °C 10.3 °C 1006.4 hPa Calm   1.6 km/h 87% 0.0 mm 264 W/m2
09:36 12.6 °C 10.3 °C 1006.4 hPa West 3.2 km/h 6.4 km/h 86% 0.0 mm 278 W/m2
09:41 12.8 °C 10.3 °C 1006.4 hPa Calm   3.2 km/h 85% 0.0 mm 323 W/m2
09:46 13 °C 10.4 °C 1006.4 hPa NNW 6.4 km/h 9.7 km/h 84% 0.0 mm 301 W/m2
09:51 13.2 °C 10.6 °C 1006.4 hPa NW 6.4 km/h 6.4 km/h 84% 0.0 mm 309 W/m2
09:56 13.3 °C 10.5 °C 1006.4 hPa Calm   6.4 km/h 83% 0.0 mm 330 W/m2
10:01 13.5 °C 10.5 °C 1006.4 hPa East 11.1 km/h 14.5 km/h 82% 0.0 mm 316 W/m2
10:06 13.6 °C 10.6 °C 1006.4 hPa SE 4.7 km/h 6.4 km/h 82% 0.0 mm 285 W/m2
10:11 13.7 °C 10.7 °C 1006.4 hPa NE 14.5 km/h 14.5 km/h 82% 0.0 mm 227 W/m2
10:16 13.7 °C 10.7 °C 1006.4 hPa Calm     82% 0.0 mm 197 W/m2
10:21 13.8 °C 10.8 °C 1006.4 hPa WSW 1.4 km/h 3.2 km/h 82% 0.0 mm 206 W/m2
10:26 14 °C 11 °C 1006.4 hPa North 1.4 km/h 3.2 km/h 82% 0.0 mm 151 W/m2
10:31 14.2 °C 11.2 °C 1006.4 hPa North 1.4 km/h 3.2 km/h 82% 0.0 mm 533 W/m2
10:36 14.3 °C 10.9 °C 1006.4 hPa East 6.4 km/h 6.4 km/h 80% 0.0 mm 492 W/m2
10:41 14.6 °C 11 °C 1006.4 hPa West 6.4 km/h 11.3 km/h 79% 0.0 mm 156 W/m2
10:46 14.5 °C 10.7 °C 1006.4 hPa NW 6.4 km/h 9.7 km/h 78% 0.0 mm 483 W/m2
10:51 14.6 °C 11 °C 1006.4 hPa ENE 3.2 km/h 6.4 km/h 79% 0.0 mm 445 W/m2
10:56 14.7 °C 10.9 °C 1006.4 hPa ESE 6.4 km/h 12.9 km/h 78% 0.0 mm 476 W/m2
11:01 14.9 °C 11.1 °C 1006.4 hPa NE 4.7 km/h 6.4 km/h 78% 0.0 mm 497 W/m2
11:06 15.1 °C 11.1 °C 1006.1 hPa ENE 4.7 km/h 12.9 km/h 77% 0.0 mm 533 W/m2
11:11 15.3 °C 11.1 °C 1006.1 hPa WNW 4.7 km/h 6.4 km/h 76% 0.0 mm 592 W/m2
11:16 15.5 °C 11.3 °C 1006.1 hPa NNE 3.2 km/h 4.8 km/h 76% 0.0 mm 621 W/m2
11:22 15.9 °C 11.7 °C 1006.1 hPa North 1.4 km/h 4.8 km/h 76% 0.0 mm 673 W/m2
11:27 16.2 °C 11.4 °C 1006.1 hPa NNW 3.2 km/h 9.7 km/h 73% 0.0 mm 675 W/m2
11:32 16.2 °C 11.6 °C 1006.1 hPa NNW 4.7 km/h 11.3 km/h 74% 0.0 mm 687 W/m2
11:37 16.1 °C 11.3 °C 1006.1 hPa West 4.7 km/h 11.3 km/h 73% 0.0 mm 239 W/m2
11:42 16.2 °C 11.1 °C 1006.1 hPa WNW 9.7 km/h 14.5 km/h 72% 0.0 mm 756 W/m2
11:47 16 °C 11.2 °C 1005.8 hPa Calm   8 km/h 73% 0.0 mm 594 W/m2
11:52 16.3 °C 11.5 °C 1005.8 hPa WNW 4.7 km/h 6.4 km/h 73% 0.0 mm 216 W/m2
11:57 16.6 °C 11.5 °C 1005.8 hPa East 3.2 km/h 17.7 km/h 72% 0.0 mm 202 W/m2
12:02 16.6 °C 11.3 °C 1005.8 hPa East 3.2 km/h 6.4 km/h 71% 0.0 mm 236 W/m2
12:07 16.7 °C 11.4 °C 1005.8 hPa East 3.2 km/h 14.5 km/h 71% 0.0 mm 236 W/m2
12:12 16.9 °C 11.4 °C 1005.8 hPa WNW 9.7 km/h 11.3 km/h 70% 0.0 mm 745 W/m2
12:17 17.3 °C 11.8 °C 1005.4 hPa NNW 9.7 km/h 9.7 km/h 70% 0.0 mm 752 W/m2
12:22 17.4 °C 11.7 °C 1005.4 hPa NE 6.4 km/h 6.4 km/h 69% 0.0 mm 738 W/m2
12:27 17.4 °C 11.7 °C 1005.4 hPa NE 4.7 km/h 12.9 km/h 69% 0.0 mm 297 W/m2
12:32 17.5 °C 11.5 °C 1005.4 hPa WSW 20.9 km/h 20.9 km/h 68% 0.0 mm 708 W/m2
12:37 17.5 °C 11.5 °C 1005.4 hPa West 4.7 km/h 12.9 km/h 68% 0.0 mm 638 W/m2
12:42 17.5 °C 11.3 °C 1005.4 hPa West 13 km/h 20.9 km/h 67% 0.0 mm 515 W/m2
12:47 17.3 °C 11.3 °C 1005.1 hPa West 3.2 km/h 3.2 km/h 68% 0.0 mm 715 W/m2
12:52 17.3 °C 11.8 °C 1005.1 hPa WNW 7.9 km/h 20.9 km/h 70% 0.0 mm 229 W/m2
12:57 17.4 °C 11.7 °C 1004.7 hPa ENE 1.4 km/h 8 km/h 69% 0.0 mm 666 W/m2
13:02 17.8 °C 11.6 °C 1004.7 hPa North 6.4 km/h 20.9 km/h 67% 0.0 mm 701 W/m2
13:07 18.1 °C 11.6 °C 1004.7 hPa East 11.1 km/h 11.3 km/h 66% 0.0 mm 756 W/m2
13:12 18.4 °C 11.7 °C 1004.7 hPa Calm   20.9 km/h 65% 0.0 mm 612 W/m2
13:17 18.1 °C 11.2 °C 1004.7 hPa NNE 1.4 km/h 11.3 km/h 64% 0.0 mm 652 W/m2
13:22 18 °C 11.6 °C 1004.7 hPa WNW 3.2 km/h 4.8 km/h 66% 0.0 mm 399 W/m2
13:27 18.2 °C 11.5 °C 1004.7 hPa WSW 3.2 km/h 9.7 km/h 65% 0.0 mm 436 W/m2
13:32 18.2 °C 11.5 °C 1004.7 hPa NE 1.4 km/h 3.2 km/h 65% 0.0 mm 211 W/m2
13:37 18.1 °C 10.9 °C 1004.4 hPa NW 6.4 km/h 12.9 km/h 63% 0.0 mm 185 W/m2
13:42 18.2 °C 11 °C 1004.4 hPa NW 6.4 km/h 16.1 km/h 63% 0.0 mm 445 W/m2
13:47 18.3 °C 10.9 °C 1004.4 hPa West 11.1 km/h 12.9 km/h 62% 0.0 mm 244 W/m2
13:52 18.4 °C 11.2 °C 1004.4 hPa North 6.4 km/h 16.1 km/h 63% 0.0 mm 283 W/m2
13:57 18.6 °C 10.9 °C 1004.1 hPa NW 4.7 km/h 12.9 km/h 61% 0.0 mm 503 W/m2
14:02 18.6 °C 11.2 °C 1004.1 hPa WNW 13 km/h 20.9 km/h 62% 0.0 mm 302 W/m2
14:07 18.7 °C 11.3 °C 1004.1 hPa SW 1.4 km/h 4.8 km/h 62% 0.0 mm 244 W/m2
14:12 18.7 °C 11 °C 1004.1 hPa West 9.7 km/h 20.9 km/h 61% 0.0 mm 251 W/m2
14:17 18.7 °C 11.5 °C 1004.1 hPa NW 6.4 km/h 12.9 km/h 63% 0.0 mm 294 W/m2
14:22 18.8 °C 11.4 °C 1004.1 hPa West 14.5 km/h 14.5 km/h 62% 0.0 mm 360 W/m2
14:27 18.9 °C 11.5 °C 1003.7 hPa ESE 4.7 km/h 11.3 km/h 62% 0.0 mm 237 W/m2
14:32 18.9 °C 11.5 °C 1003.7 hPa NW 1.4 km/h 9.7 km/h 62% 0.0 mm 185 W/m2
14:37 18.9 °C 11.2 °C 1003.4 hPa WNW 4.7 km/h 6.4 km/h 61% 0.0 mm 260 W/m2
14:42 19.1 °C 11.4 °C 1003.4 hPa WNW 1.4 km/h 9.7 km/h 61% 0.0 mm 244 W/m2
14:47 19.3 °C 11.8 °C 1003.4 hPa WSW 6.4 km/h 8 km/h 62% 0.0 mm 176 W/m2
14:52 19.3 °C 10.8 °C 1003.4 hPa WNW 6.4 km/h 12.9 km/h 58% 0.0 mm 116 W/m2
14:57 19.3 °C 11.3 °C 1003.4 hPa Calm   4.8 km/h 60% 0.0 mm 199 W/m2
15:02 19.3 °C 10.8 °C 1003.4 hPa NNW 4.7 km/h 12.9 km/h 58% 0.0 mm 220 W/m2
15:07 19.3 °C 10.8 °C 1003.4 hPa ENE 6.4 km/h 6.4 km/h 58% 0.0 mm 315 W/m2
15:12 19.4 °C 11.2 °C 1003.0 hPa West 4.7 km/h 8 km/h 59% 0.0 mm 202 W/m2
15:17 19.4 °C 10.7 °C 1003.0 hPa SW 1.4 km/h 8 km/h 57% 0.0 mm 255 W/m2
15:27 19.5 °C 11 °C 1002.7 hPa NW 1.4 km/h 6.4 km/h 58% 0.0 mm 202 W/m2
15:32 19.6 °C 10.8 °C 1002.7 hPa Calm   3.2 km/h 57% 0.0 mm 260 W/m2
15:37 19.7 °C 10.9 °C 1002.7 hPa WNW 3.2 km/h 9.7 km/h 57% 0.0 mm 302 W/m2
15:42 19.8 °C 11 °C 1002.7 hPa WNW 3.2 km/h 3.2 km/h 57% 0.0 mm 167 W/m2
15:47 19.8 °C 11 °C 1002.7 hPa North 4.7 km/h 4.8 km/h 57% 0.0 mm 373 W/m2
15:52 19.7 °C 10.9 °C 1002.7 hPa WSW 11.1 km/h 12.9 km/h 57% 0.0 mm 139 W/m2
15:57 19.7 °C 11.2 °C 1002.4 hPa East 1.4 km/h 1.6 km/h 58% 0.0 mm 120 W/m2
16:02 19.6 °C 11.1 °C 1002.4 hPa Calm   6.4 km/h 58% 0.0 mm 165 W/m2
16:07 19.5 °C 11 °C 1002.4 hPa NW 1.4 km/h 4.8 km/h 58% 0.0 mm 105 W/m2
16:12 19.4 °C 11.2 °C 1002.4 hPa Calm   4.8 km/h 59% 0.0 mm 79 W/m2
16:17 19.4 °C 11.4 °C 1002.4 hPa NNW 1.4 km/h 3.2 km/h 60% 0.0 mm 107 W/m2
16:22 19.3 °C 11.6 °C 1002.0 hPa East 11.1 km/h 19.3 km/h 61% 0.0 mm 148 W/m2
16:27 19 °C 11.8 °C 1002.0 hPa ENE 6.4 km/h 16.1 km/h 63% 0.0 mm 181 W/m2
16:32 18.9 °C 11.7 °C 1002.0 hPa ESE 6.4 km/h 19.3 km/h 63% 0.0 mm 213 W/m2
16:37 18.9 °C 11.9 °C 1002.0 hPa SSE 1.4 km/h 11.3 km/h 64% 0.0 mm 186 W/m2
16:47 18.9 °C 12.4 °C 1001.7 hPa ESE 3.2 km/h 19.3 km/h 66% 0.0 mm 197 W/m2
16:52 18.8 °C 12.8 °C 1001.7 hPa East 6.4 km/h 12.9 km/h 68% 0.0 mm 125 W/m2
16:57 18.5 °C 12.7 °C 1001.7 hPa SE 3.2 km/h 17.7 km/h 69% 0.0 mm 88 W/m2
17:02 18.3 °C 12.5 °C 1001.7 hPa East 6.4 km/h 16.1 km/h 69% 0.0 mm 47 W/m2
17:07 18 °C 12.4 °C 1001.7 hPa ESE 9.7 km/h 17.7 km/h 70% 0.0 mm 23 W/m2
17:12 17.7 °C 12.8 °C 1001.4 hPa ESE 4.7 km/h 17.7 km/h 73% 0.0 mm 16 W/m2
17:17 17.3 °C 12.8 °C 1001.4 hPa ENE 3.2 km/h 11.3 km/h 75% 0.0 mm 18 W/m2
17:22 17.1 °C 12.8 °C 1001.0 hPa NE 6.4 km/h 17.7 km/h 76% 0.0 mm 25 W/m2
17:27 16.9 °C 13 °C 1001.0 hPa ENE 3.2 km/h 9.7 km/h 78% 0.0 mm 54 W/m2
17:32 16.8 °C 12.9 °C 1001.4 hPa ESE 4.7 km/h 9.7 km/h 78% 0.0 mm 56 W/m2
17:37 16.7 °C 13 °C 1001.4 hPa SE 3.2 km/h 9.7 km/h 79% 0.0 mm 54 W/m2
17:42 16.6 °C 13.1 °C 1001.4 hPa NE 4.7 km/h 8 km/h 80% 0.0 mm 54 W/m2
17:47 16.6 °C 13.1 °C 1001.4 hPa NNE 1.4 km/h 4.8 km/h 80% 0.0 mm 46 W/m2
17:52 16.5 °C 13 °C 1001.4 hPa ESE 9.7 km/h 12.9 km/h 80% 0.0 mm 33 W/m2
17:57 16.4 °C 13.1 °C 1001.0 hPa East 4.7 km/h 11.3 km/h 81% 0.0 mm 28 W/m2
18:02 16.4 °C 13.1 °C 1000.7 hPa Calm   4.8 km/h 81% 0.0 mm 21 W/m2
18:07 16.3 °C 13.2 °C 1000.7 hPa East 1.4 km/h 12.9 km/h 82% 0.0 mm 18 W/m2
18:12 16.2 °C 13.1 °C 1000.3 hPa ENE 3.2 km/h 14.5 km/h 82% 0.0 mm 23 W/m2
18:17 16.2 °C 13.3 °C 1000.3 hPa ENE 6.4 km/h 17.7 km/h 83% 0.0 mm 30 W/m2
18:22 16.1 °C 13.2 °C 1000.3 hPa East 3.2 km/h 4.8 km/h 83% 0.0 mm 37 W/m2
18:27 16.1 °C 13.2 °C 1000.3 hPa NE 4.7 km/h 17.7 km/h 83% 0.0 mm 39 W/m2
18:32 16 °C 13.3 °C 1000.3 hPa ENE 7.9 km/h 11.3 km/h 84% 0.0 mm 39 W/m2
18:37 15.9 °C 13.2 °C 1000.3 hPa ENE 4.7 km/h 14.5 km/h 84% 0.0 mm 33 W/m2
18:42 15.9 °C 13.2 °C 1000.0 hPa NE 6.4 km/h 6.4 km/h 84% 0.0 mm 35 W/m2
18:47 15.9 °C 13.4 °C 1000.0 hPa NE 6.4 km/h 16.1 km/h 85% 0.0 mm 39 W/m2
18:52 15.8 °C 13.3 °C 1000.0 hPa East 6.4 km/h 12.9 km/h 85% 0.0 mm 39 W/m2
18:57 15.8 °C 13.5 °C 1000.0 hPa ENE 4.7 km/h 12.9 km/h 86% 0.0 mm 32 W/m2
19:02 15.7 °C 13.4 °C 1000.0 hPa East 13 km/h 22.5 km/h 86% 0.0 mm 25 W/m2
19:07 15.7 °C 13.5 °C 1000.0 hPa ENE 4.7 km/h 14.5 km/h 87% 0.0 mm 18 W/m2
19:12 15.7 °C 13.5 °C 1000.0 hPa East 11.1 km/h 19.3 km/h 87% 0.0 mm 12 W/m2
19:17 15.7 °C 13.5 °C 1000.0 hPa East 1.4 km/h 6.4 km/h 87% 0.0 mm 9 W/m2
19:22 15.6 °C 13.4 °C 1000.0 hPa ESE 11.1 km/h 11.3 km/h 87% 0.0 mm 5 W/m2
19:27 15.6 °C 13.6 °C 999.7 hPa ESE 3.2 km/h 8 km/h 88% 0.0 mm 0 W/m2
19:32 15.6 °C 13.6 °C 999.7 hPa NE 7.9 km/h 11.3 km/h 88% 0.0 mm 0 W/m2
19:37 15.5 °C 13.5 °C 999.7 hPa ENE 3.2 km/h 4.8 km/h 88% 0.0 mm 0 W/m2
19:42 15.5 °C 13.5 °C 999.7 hPa ESE 4.7 km/h 6.4 km/h 88% 0.0 mm 0 W/m2
19:47 15.5 °C 13.5 °C 999.7 hPa East 1.4 km/h 8 km/h 88% 0.0 mm 0 W/m2
19:52 15.5 °C 13.5 °C 999.7 hPa Calm   1.6 km/h 88% 0.0 mm 0 W/m2
19:57 15.4 °C 13.6 °C 999.3 hPa ENE 4.7 km/h 8 km/h 89% 0.0 mm 0 W/m2
20:02 15.4 °C 13.6 °C 999.3 hPa Calm   3.2 km/h 89% 0.0 mm 0 W/m2
20:07 15.3 °C 13.5 °C 999.3 hPa ENE 4.7 km/h 6.4 km/h 89% 0.0 mm 0 W/m2
20:12 15.3 °C 13.5 °C 999.7 hPa Calm   3.2 km/h 89% 0.0 mm 0 W/m2
20:17 15.2 °C 13.4 °C 999.3 hPa Calm   1.6 km/h 89% 0.0 mm 0 W/m2
20:22 15.2 °C 13.6 °C 999.7 hPa Calm   3.2 km/h 90% 0.0 mm 0 W/m2
20:27 15.2 °C 13.6 °C 999.7 hPa NE 3.2 km/h 3.2 km/h 90% 0.0 mm 0 W/m2
20:32 15.2 °C 13.6 °C 999.7 hPa NE 1.4 km/h 8 km/h 90% 0.0 mm 0 W/m2
20:37 15.2 °C 13.6 °C 999.7 hPa Calm   3.2 km/h 90% 0.0 mm 0 W/m2
20:42 15.2 °C 13.6 °C 999.7 hPa NE 3.2 km/h 3.2 km/h 90% 0.0 mm 0 W/m2
20:47 15.3 °C 13.7 °C 999.7 hPa NE 1.4 km/h 1.6 km/h 90% 0.0 mm 0 W/m2
20:52 15.2 °C 13.6 °C 999.7 hPa Calm   4.8 km/h 90% 0.0 mm 0 W/m2
20:57 15.3 °C 13.7 °C 999.3 hPa NNE 1.4 km/h 3.2 km/h 90% 0.0 mm 0 W/m2
21:02 15.3 °C 13.7 °C 999.3 hPa Calm   3.2 km/h 90% 0.0 mm 0 W/m2
21:07 15.3 °C 13.5 °C 999.3 hPa NE 1.4 km/h 1.6 km/h 89% 0.0 mm 0 W/m2
21:12 15.3 °C 13.5 °C 999.3 hPa East 4.7 km/h 4.8 km/h 89% 0.0 mm 0 W/m2
21:17 15.4 °C 13.6 °C 999.3 hPa North 3.2 km/h 9.7 km/h 89% 0.0 mm 0 W/m2
21:22 15.4 °C 13.6 °C 999.3 hPa NNE 3.2 km/h 4.8 km/h 89% 0.0 mm 0 W/m2
21:27 15.5 °C 13.7 °C 999.7 hPa ENE 4.7 km/h 8 km/h 89% 0.0 mm 0 W/m2
21:32 15.5 °C 13.7 °C 999.7 hPa NNE 1.4 km/h 4.8 km/h 89% 0.0 mm 0 W/m2
21:38 15.5 °C 13.7 °C 999.7 hPa ENE 3.2 km/h 14.5 km/h 89% 0.5 mm 0 W/m2
21:43 15.4 °C 13.6 °C 999.7 hPa Calm   3.2 km/h 89% 0.8 mm 0 W/m2
21:48 15.3 °C 13.7 °C 999.3 hPa NW 6.4 km/h 11.3 km/h 90% 1.3 mm 0 W/m2
21:53 15.3 °C 13.7 °C 999.3 hPa WNW 3.2 km/h 4.8 km/h 90% 2.0 mm 0 W/m2
21:58 15.2 °C 13.7 °C 999.3 hPa ENE 3.2 km/h 9.7 km/h 91% 2.3 mm 0 W/m2
22:03 15.1 °C 13.6 °C 999.0 hPa ENE 3.2 km/h 4.8 km/h 91% 2.3 mm 0 W/m2
22:08 15 °C 13.5 °C 999.3 hPa ENE 3.2 km/h 4.8 km/h 91% 2.3 mm 0 W/m2
22:13 14.9 °C 13.6 °C 999.3 hPa Calm   3.2 km/h 92% 2.3 mm 0 W/m2
22:18 14.9 °C 13.6 °C 999.3 hPa ENE 1.4 km/h 4.8 km/h 92% 2.3 mm 0 W/m2
22:23 14.8 °C 13.5 °C 999.3 hPa NNE 3.2 km/h 9.7 km/h 92% 2.3 mm 0 W/m2
22:28 14.8 °C 13.5 °C 999.0 hPa NNW 4.7 km/h 8 km/h 92% 2.3 mm 0 W/m2
22:33 14.8 °C 13.3 °C 999.0 hPa NNW 1.4 km/h 9.7 km/h 91% 2.3 mm 0 W/m2
22:38 14.8 °C 13.3 °C 999.0 hPa NNE 1.4 km/h 4.8 km/h 91% 2.0 mm 0 W/m2
22:43 14.8 °C 13.3 °C 999.0 hPa NE 3.2 km/h 4.8 km/h 91% 1.5 mm 0 W/m2
22:48 14.7 °C 13.2 °C 998.6 hPa Calm   6.4 km/h 91% 1.3 mm 0 W/m2
22:53 14.7 °C 13.2 °C 998.6 hPa ENE 3.2 km/h 4.8 km/h 91% 0.5 mm 0 W/m2
22:58 14.7 °C 13.2 °C 998.6 hPa NNE 1.4 km/h 6.4 km/h 91% 0.2 mm 0 W/m2
23:03 14.7 °C 13.2 °C 998.6 hPa ENE 3.2 km/h 11.3 km/h 91% 0.0 mm 0 W/m2
23:08 14.6 °C 13.1 °C 998.6 hPa ENE 4.7 km/h 6.4 km/h 91% 0.0 mm 0 W/m2
23:13 14.6 °C 13.1 °C 998.6 hPa NE 1.4 km/h 11.3 km/h 91% 0.0 mm 0 W/m2
23:18 14.6 °C 13.1 °C 998.6 hPa NNE 1.4 km/h 4.8 km/h 91% 0.0 mm 0 W/m2
23:23 14.6 °C 13.1 °C 998.3 hPa ENE 4.7 km/h 8 km/h 91% 0.0 mm 0 W/m2
23:28 14.6 °C 13 °C 998.3 hPa ENE 1.4 km/h 6.4 km/h 90% 0.0 mm 0 W/m2
23:33 14.4 °C 12.8 °C 998.0 hPa ENE 6.4 km/h 12.9 km/h 90% 0.0 mm 0 W/m2
23:38 14.4 °C 12.8 °C 998.0 hPa North 3.2 km/h 6.4 km/h 90% 0.0 mm 0 W/m2
23:43 14.4 °C 12.8 °C 998.0 hPa NE 4.7 km/h 8 km/h 90% 0.0 mm 0 W/m2
23:48 14.3 °C 12.7 °C 998.0 hPa NE 1.4 km/h 1.6 km/h 90% 0.0 mm 0 W/m2
23:53 14.3 °C 12.7 °C 998.0 hPa West 3.2 km/h 3.2 km/h 90% 0.0 mm 0 W/m2
23:58 14.2 °C 12.6 °C 998.0 hPa SSE 1.4 km/h 3.2 km/h 90% 0.0 mm 0 W/m2
Juneau County Weather
Compliments of Weather Underground - 4 mb